Time;durP1;ratioP1;P1;durP2;ratioP2;P2;SDS_P1;SDS_P2;PMS_P1;PMS_P2;Temp;Humidity;BMP_temperature;BMP_pressure;BME280_temperature;BME280_humidity;BME280_pressure;Samples;Min_cycle;Max_cycle;Signal;HPM_P1;HPM_P2
2021/12/04 00:00:46;;;;;;;;;;;4.90;99.90;;;;;;5038027;28;19925;-88
2021/12/04 00:03:12;;;;;;;;;;;4.90;99.90;;;;;;5038868;28;19932;-89
2021/12/04 00:05:41;;;;;;;;;;;4.90;99.90;;;;;;5038132;28;20019;-89
2021/12/04 00:08:09;;;;;;;;;;;4.90;99.90;;;;;;5038132;28;19980;-88
2021/12/04 00:10:34;;;;;;;;;;;4.90;99.90;;;;;;5054571;28;19932;-89
2021/12/04 00:13:00;;;;;;;;;;;4.90;99.90;;;;;;5037908;28;20289;-89
2021/12/04 00:15:25;;;;;;;;;;;4.90;99.90;;;;;;5037326;28;19929;-89
2021/12/04 00:17:51;;;;;;;;;;;4.80;99.90;;;;;;5021425;28;19924;-88
2021/12/04 00:20:16;;;;;;;;;;;4.90;99.90;;;;;;5037325;28;19929;-88
2021/12/04 00:22:42;;;;;;;;;;;4.80;99.90;;;;;;5020951;28;20350;-88
2021/12/04 00:25:08;;;;;;;;;;;4.90;99.90;;;;;;5037718;28;19925;-91
2021/12/04 00:27:34;;;;;;;;;;;4.90;99.90;;;;;;5036799;28;19932;-89
2021/12/04 00:29:59;;;;;;;;;;;4.80;99.90;;;;;;5037649;28;20015;-90
2021/12/04 00:32:32;;;;;;;;;;;4.80;99.90;;;;;;5037137;28;20254;-89
2021/12/04 00:51:08;;;;;;;;;;;4.80;99.90;;;;;;5039763;28;19971;-89
2021/12/04 00:53:34;;;;;;;;;;;4.80;99.90;;;;;;5020417;28;19929;-89
2021/12/04 00:55:59;;;;;;;;;;;4.80;99.90;;;;;;5037245;28;19931;-90
2021/12/04 00:58:25;;;;;;;;;;;4.90;99.90;;;;;;5036665;28;19925;-89
2021/12/04 01:00:50;;;;;;;;;;;4.90;99.90;;;;;;5020217;28;20092;-89
2021/12/04 01:03:16;;;;;;;;;;;4.80;99.90;;;;;;5020127;28;19925;-89
2021/12/04 01:05:41;;;;;;;;;;;4.80;99.90;;;;;;5053566;28;19932;-89
2021/12/04 01:08:07;;;;;;;;;;;4.90;99.90;;;;;;5036693;28;19931;-89
2021/12/04 01:10:32;;;;;;;;;;;4.80;99.90;;;;;;5036591;28;20047;-89
2021/12/04 01:13:00;;;;;;;;;;;4.80;99.90;;;;;;5036889;28;19951;-89
2021/12/04 01:15:27;;;;;;;;;;;4.80;99.90;;;;;;5036683;28;19933;-89
2021/12/04 01:17:52;;;;;;;;;;;4.80;99.90;;;;;;5036849;28;20296;-89
2021/12/04 01:20:18;;;;;;;;;;;4.80;99.90;;;;;;5036313;28;19933;-89
2021/12/04 01:22:44;;;;;;;;;;;4.80;99.90;;;;;;5020392;28;19931;-89
2021/12/04 01:25:09;;;;;;;;;;;4.80;99.90;;;;;;5052623;28;19924;-89
2021/12/04 01:27:37;;;;;;;;;;;4.80;99.90;;;;;;5018818;28;19924;-89
2021/12/04 01:30:05;;;;;;;;;;;4.90;99.90;;;;;;5053262;28;19932;-89
2021/12/04 01:32:31;;;;;;;;;;;4.90;99.90;;;;;;5035866;28;20261;-90
2021/12/04 01:34:57;;;;;;;;;;;4.90;99.90;;;;;;5020025;28;19932;-89
2021/12/04 01:37:22;;;;;;;;;;;4.80;99.90;;;;;;5052623;28;20023;-89
2021/12/04 01:39:50;;;;;;;;;;;4.80;99.90;;;;;;5019986;28;19978;-89
2021/12/04 01:42:20;;;;;;;;;;;4.90;99.90;;;;;;5053050;28;20422;-89
2021/12/04 01:44:47;;;;;;;;;;;4.80;99.90;;;;;;5019990;28;19932;-89
2021/12/04 01:47:13;;;;;;;;;;;4.80;99.90;;;;;;5019716;28;19932;-89
2021/12/04 01:49:38;;;;;;;;;;;4.80;99.90;;;;;;5019467;28;19991;-90
2021/12/04 01:52:04;;;;;;;;;;;4.90;99.90;;;;;;5036160;28;20372;-89
2021/12/04 01:54:30;;;;;;;;;;;4.90;99.90;;;;;;5019256;28;19925;-89
2021/12/04 01:56:56;;;;;;;;;;;4.90;99.90;;;;;;5036236;28;19960;-90
2021/12/04 01:59:21;;;;;;;;;;;4.90;99.90;;;;;;5035730;28;20012;-89
2021/12/04 02:01:47;;;;;;;;;;;4.80;99.90;;;;;;5036020;28;19975;-90
2021/12/04 02:04:12;;;;;;;;;;;4.90;99.90;;;;;;5035990;28;19933;-89
2021/12/04 02:06:38;;;;;;;;;;;4.80;99.90;;;;;;5035280;28;19925;-88
2021/12/04 02:09:03;;;;;;;;;;;4.90;99.90;;;;;;5019418;28;19931;-89
2021/12/04 02:11:29;;;;;;;;;;;4.80;99.90;;;;;;5019259;28;20016;-89
2021/12/04 02:13:55;;;;;;;;;;;4.90;99.90;;;;;;5019487;28;19924;-89
2021/12/04 02:16:20;;;;;;;;;;;4.90;99.90;;;;;;5051973;28;19932;-89
2021/12/04 02:18:46;;;;;;;;;;;4.80;99.90;;;;;;5018876;28;19979;-89
2021/12/04 02:21:12;;;;;;;;;;;5.00;99.90;;;;;;5035713;28;19931;-89
2021/12/04 02:23:37;;;;;;;;;;;4.90;99.90;;;;;;5018729;28;19925;-89
2021/12/04 02:26:03;;;;;;;;;;;4.90;99.90;;;;;;5019199;28;19975;-89
2021/12/04 02:28:28;;;;;;;;;;;4.90;99.90;;;;;;5034488;28;19925;-89
2021/12/04 02:30:54;;;;;;;;;;;4.90;99.90;;;;;;5019164;28;20019;-90
2021/12/04 02:33:22;;;;;;;;;;;4.90;99.90;;;;;;5019093;28;19925;-89
2021/12/04 02:35:48;;;;;;;;;;;4.90;99.90;;;;;;5035153;28;19924;-89
2021/12/04 02:38:14;;;;;;;;;;;4.90;99.90;;;;;;5020973;28;20087;-89
2021/12/04 02:40:43;;;;;;;;;;;4.90;99.90;;;;;;5055816;28;19976;-88
2021/12/04 02:43:08;;;;;;;;;;;4.90;99.90;;;;;;5023519;28;19925;-90
2021/12/04 02:45:34;;;;;;;;;;;4.90;99.90;;;;;;5022313;28;19979;-88
2021/12/04 02:47:59;;;;;;;;;;;4.90;99.90;;;;;;5039210;28;19978;-89
2021/12/04 02:50:25;;;;;;;;;;;4.90;99.90;;;;;;5022975;28;20321;-90
2021/12/04 02:52:50;;;;;;;;;;;4.90;99.90;;;;;;5039025;28;20277;-89
2021/12/04 02:55:16;;;;;;;;;;;4.90;99.90;;;;;;5055532;28;19928;-90
2021/12/04 02:57:44;;;;;;;;;;;4.80;99.90;;;;;;5038938;28;19928;-89
2021/12/04 03:00:13;;;;;;;;;;;4.90;99.90;;;;;;5023107;28;19925;-89
2021/12/04 03:02:38;;;;;;;;;;;4.90;99.90;;;;;;5038898;28;20000;-89
2021/12/04 03:05:07;;;;;;;;;;;5.00;99.90;;;;;;5039153;28;20361;-89
2021/12/04 03:07:33;;;;;;;;;;;4.90;99.90;;;;;;5038202;28;19929;-89
2021/12/04 03:09:58;;;;;;;;;;;4.80;99.90;;;;;;5022804;28;19925;-89
2021/12/04 03:12:24;;;;;;;;;;;4.90;99.90;;;;;;5022500;28;19925;-89
2021/12/04 03:14:50;;;;;;;;;;;5.00;99.90;;;;;;5038338;28;20393;-89
2021/12/04 03:17:19;;;;;;;;;;;4.90;99.90;;;;;;5055547;28;20019;-90
2021/12/04 03:19:48;;;;;;;;;;;4.90;99.90;;;;;;5055371;28;19983;-89
2021/12/04 03:22:15;;;;;;;;;;;4.90;99.90;;;;;;5055515;28;19924;-89
2021/12/04 03:24:42;;;;;;;;;;;4.90;99.90;;;;;;5022314;28;19932;-89
2021/12/04 03:27:08;;;;;;;;;;;4.90;99.90;;;;;;5054922;28;19924;-89
2021/12/04 03:29:38;;;;;;;;;;;4.90;99.90;;;;;;5038497;28;20465;-88
2021/12/04 03:42:33;;;;;;;;;;;4.80;99.90;;;;;;5055182;28;19978;-89
2021/12/04 03:44:58;;;;;;;;;;;4.80;99.90;;;;;;5037786;28;20381;-89
2021/12/04 03:47:24;;;;;;;;;;;4.80;99.90;;;;;;5021530;28;19950;-89
2021/12/04 03:49:49;;;;;;;;;;;4.80;99.90;;;;;;5037694;28;19978;-90
2021/12/04 03:52:15;;;;;;;;;;;4.90;99.90;;;;;;5038259;28;19931;-90
2021/12/04 03:54:40;;;;;;;;;;;4.90;99.90;;;;;;5021514;28;19964;-89
2021/12/04 03:57:06;;;;;;;;;;;4.80;99.90;;;;;;5055193;28;19925;-89
2021/12/04 03:59:32;;;;;;;;;;;4.90;99.90;;;;;;5038473;28;19935;-89
2021/12/04 04:01:58;;;;;;;;;;;4.80;99.90;;;;;;5037848;28;20280;-91
2021/12/04 04:04:23;;;;;;;;;;;4.80;99.90;;;;;;5021612;28;19983;-88
2021/12/04 04:06:49;;;;;;;;;;;4.80;99.90;;;;;;5037319;28;19925;-89
2021/12/04 04:09:14;;;;;;;;;;;4.80;99.90;;;;;;5038062;28;19925;-89
2021/12/04 04:11:41;;;;;;;;;;;4.70;99.90;;;;;;5037369;28;19960;-89
2021/12/04 04:14:06;;;;;;;;;;;4.80;99.90;;;;;;5054680;28;20289;-89
2021/12/04 04:16:35;;;;;;;;;;;4.80;99.90;;;;;;5037724;28;19928;-89
2021/12/04 04:19:03;;;;;;;;;;;4.80;99.90;;;;;;5021403;28;19931;-88
2021/12/04 04:21:29;;;;;;;;;;;4.90;99.90;;;;;;5021585;28;20285;-89
2021/12/04 04:23:54;;;;;;;;;;;4.80;99.90;;;;;;5020906;28;20008;-89
2021/12/04 04:26:20;;;;;;;;;;;4.80;99.90;;;;;;5037690;28;20162;-88
2021/12/04 04:28:46;;;;;;;;;;;4.80;99.90;;;;;;5036260;28;19928;-88
2021/12/04 04:31:14;;;;;;;;;;;4.80;99.90;;;;;;5021310;28;20366;-88
2021/12/04 04:33:43;;;;;;;;;;;4.80;99.90;;;;;;5038051;28;20261;-89
2021/12/04 04:36:35;;;;;;;;;;;4.80;99.90;;;;;;5037346;28;19925;-89
2021/12/04 05:00:52;;;;;;;;;;;4.80;99.90;;;;;;5052714;28;20315;-89
2021/12/04 05:11:46;;;;;;;;;;;4.90;99.90;;;;;;5039572;28;19928;-89
2021/12/04 05:14:19;;;;;;;;;;;4.80;99.90;;;;;;5022573;28;19987;-89
2021/12/04 05:19:38;;;;;;;;;;;4.80;99.90;;;;;;5039305;28;19931;-88
2021/12/04 05:22:04;;;;;;;;;;;4.90;99.90;;;;;;5021103;28;19925;-88
2021/12/04 05:24:29;;;;;;;;;;;4.80;99.90;;;;;;5036585;28;19931;-89
2021/12/04 05:26:55;;;;;;;;;;;4.80;99.90;;;;;;5035808;28;19924;-87
2021/12/04 05:29:21;;;;;;;;;;;4.80;99.90;;;;;;5036389;28;20242;-89
2021/12/04 05:31:46;;;;;;;;;;;4.80;99.90;;;;;;5021907;28;20284;-90
2021/12/04 05:34:12;;;;;;;;;;;4.90;99.90;;;;;;5039584;28;19984;-91
2021/12/04 05:36:37;;;;;;;;;;;4.90;99.90;;;;;;5020994;28;19928;-92
2021/12/04 05:39:03;;;;;;;;;;;4.80;99.90;;;;;;5019739;28;19983;-91
2021/12/04 05:41:29;;;;;;;;;;;4.80;99.90;;;;;;5021677;28;19925;-94
2021/12/04 05:43:55;;;;;;;;;;;4.80;99.90;;;;;;5021017;28;19925;-92
2021/12/04 05:46:26;;;;;;;;;;;4.80;99.90;;;;;;5037556;28;19924;-89
2021/12/04 05:48:56;;;;;;;;;;;4.90;99.90;;;;;;5036995;28;19925;-91
2021/12/04 05:51:38;;;;;;;;;;;4.80;99.90;;;;;;5020417;28;20141;-89
2021/12/04 05:56:32;;;;;;;;;;;4.80;99.90;;;;;;5037640;28;19967;-90
2021/12/04 05:58:58;;;;;;;;;;;4.90;99.90;;;;;;5052794;28;19925;-92
2021/12/04 06:01:24;;;;;;;;;;;4.80;99.90;;;;;;5053223;28;19948;-91
2021/12/04 06:03:49;;;;;;;;;;;4.90;99.90;;;;;;5053165;28;19924;-91
2021/12/04 06:06:15;;;;;;;;;;;4.90;99.90;;;;;;5052191;28;19924;-88
2021/12/04 06:08:44;;;;;;;;;;;4.90;99.90;;;;;;5035415;28;19932;-89
2021/12/04 06:11:09;;;;;;;;;;;4.90;99.90;;;;;;5018922;28;19925;-89
2021/12/04 06:13:35;;;;;;;;;;;4.90;99.90;;;;;;5019180;28;19924;-89
2021/12/04 06:16:00;;;;;;;;;;;4.90;99.90;;;;;;5035291;28;19980;-88
2021/12/04 06:18:26;;;;;;;;;;;4.80;99.90;;;;;;5035767;28;19925;-88
2021/12/04 06:23:36;;;;;;;;;;;4.80;99.90;;;;;;5038325;28;19979;-91
2021/12/04 06:26:02;;;;;;;;;;;4.80;99.90;;;;;;5035204;28;19964;-90
2021/12/04 06:28:28;;;;;;;;;;;4.80;99.90;;;;;;5052335;28;19925;-92
2021/12/04 06:30:54;;;;;;;;;;;4.90;99.90;;;;;;5053728;28;20276;-93
2021/12/04 06:33:20;;;;;;;;;;;4.80;99.90;;;;;;5036705;28;20360;-92
2021/12/04 06:35:46;;;;;;;;;;;4.90;99.90;;;;;;5037345;28;20035;-91
2021/12/04 06:38:12;;;;;;;;;;;4.90;99.90;;;;;;5036025;28;19936;-93
2021/12/04 06:40:38;;;;;;;;;;;5.00;99.90;;;;;;5019711;28;19925;-92
2021/12/04 06:43:04;;;;;;;;;;;4.80;99.90;;;;;;5052983;28;19925;-94
2021/12/04 06:45:30;;;;;;;;;;;4.80;99.90;;;;;;5053740;28;19925;-92
2021/12/04 06:47:59;;;;;;;;;;;4.80;99.90;;;;;;5020877;28;19974;-92
2021/12/04 06:50:44;;;;;;;;;;;4.80;99.90;;;;;;5037361;28;19978;-93
2021/12/04 06:53:27;;;;;;;;;;;4.80;99.90;;;;;;5022007;28;19925;-93
2021/12/04 06:55:55;;;;;;;;;;;4.80;99.90;;;;;;5053021;28;19925;-93
2021/12/04 06:58:21;;;;;;;;;;;4.80;99.90;;;;;;5036249;28;19950;-93
2021/12/04 07:00:46;;;;;;;;;;;4.80;99.90;;;;;;5053150;28;20455;-92
2021/12/04 07:03:12;;;;;;;;;;;4.80;99.90;;;;;;5035464;28;19933;-91
2021/12/04 07:05:37;;;;;;;;;;;4.80;99.90;;;;;;5036194;28;19960;-91
2021/12/04 07:08:05;;;;;;;;;;;4.80;99.90;;;;;;5052059;28;19978;-92
2021/12/04 07:10:31;;;;;;;;;;;4.80;99.90;;;;;;5019714;28;19925;-91
2021/12/04 07:12:56;;;;;;;;;;;4.80;99.90;;;;;;5052570;28;20280;-89
2021/12/04 07:15:26;;;;;;;;;;;4.70;99.90;;;;;;5034855;28;20023;-89
2021/12/04 07:17:52;;;;;;;;;;;4.70;99.90;;;;;;5019366;28;19928;-89
2021/12/04 07:20:17;;;;;;;;;;;4.70;99.90;;;;;;5035176;28;20054;-88
2021/12/04 07:22:43;;;;;;;;;;;4.70;99.90;;;;;;5035103;28;19932;-90
2021/12/04 07:25:08;;;;;;;;;;;4.70;99.90;;;;;;5021247;28;20054;-89
2021/12/04 07:27:34;;;;;;;;;;;4.70;99.90;;;;;;5021837;28;19970;-90
2021/12/04 07:30:00;;;;;;;;;;;4.70;99.90;;;;;;5038920;28;20019;-90
2021/12/04 07:32:26;;;;;;;;;;;4.70;99.90;;;;;;5022052;28;19925;-88
2021/12/04 07:34:54;;;;;;;;;;;4.70;99.90;;;;;;5022331;28;19936;-89
2021/12/04 07:37:20;;;;;;;;;;;4.70;99.90;;;;;;5039552;28;19932;-89
2021/12/04 07:39:45;;;;;;;;;;;4.70;99.90;;;;;;5022829;28;19925;-88
2021/12/04 07:42:11;;;;;;;;;;;4.70;99.90;;;;;;5054608;28;19925;-89
2021/12/04 07:44:36;;;;;;;;;;;4.60;99.90;;;;;;5021939;28;19925;-88
2021/12/04 07:47:02;;;;;;;;;;;4.60;99.90;;;;;;5038255;28;19928;-89
2021/12/04 07:49:28;;;;;;;;;;;4.70;99.90;;;;;;5054761;28;20027;-89
2021/12/04 07:51:53;;;;;;;;;;;4.70;99.90;;;;;;5038225;28;19935;-88
2021/12/04 07:54:21;;;;;;;;;;;4.70;99.90;;;;;;5038853;28;19931;-89
2021/12/04 07:56:47;;;;;;;;;;;4.60;99.90;;;;;;5021879;28;19924;-89
2021/12/04 07:59:13;;;;;;;;;;;4.70;99.90;;;;;;5021290;28;20372;-89
2021/12/04 08:01:38;;;;;;;;;;;4.70;99.90;;;;;;5038212;28;19929;-89
2021/12/04 08:04:04;;;;;;;;;;;4.70;99.90;;;;;;5037990;28;20364;-89
2021/12/04 08:06:33;;;;;;;;;;;4.70;99.90;;;;;;5037767;28;19976;-88
2021/12/04 08:08:59;;;;;;;;;;;4.70;99.90;;;;;;5037761;28;20007;-89
2021/12/04 08:11:25;;;;;;;;;;;4.70;99.90;;;;;;5021456;28;19990;-89
2021/12/04 08:13:50;;;;;;;;;;;4.70;99.90;;;;;;5038156;28;19925;-89
2021/12/04 08:16:16;;;;;;;;;;;4.70;99.90;;;;;;5037541;28;19932;-90
2021/12/04 08:18:41;;;;;;;;;;;4.70;99.90;;;;;;5037990;28;20400;-90
2021/12/04 08:21:08;;;;;;;;;;;4.80;99.90;;;;;;5037735;28;19940;-89
2021/12/04 08:23:33;;;;;;;;;;;4.80;99.90;;;;;;5054395;28;19932;-87
2021/12/04 08:25:59;;;;;;;;;;;4.70;99.90;;;;;;5037886;28;20361;-88
2021/12/04 08:28:24;;;;;;;;;;;4.80;99.90;;;;;;5036548;28;20011;-89
2021/12/04 08:30:50;;;;;;;;;;;4.80;99.90;;;;;;5037692;28;19932;-89
2021/12/04 08:33:16;;;;;;;;;;;4.80;99.90;;;;;;5020853;28;19925;-90
2021/12/04 08:35:41;;;;;;;;;;;4.70;99.90;;;;;;5036274;28;19951;-90
2021/12/04 08:38:07;;;;;;;;;;;4.80;99.90;;;;;;5037584;28;20011;-90
2021/12/04 08:40:33;;;;;;;;;;;4.80;99.90;;;;;;5053544;28;20015;-89
2021/12/04 08:42:59;;;;;;;;;;;4.80;99.90;;;;;;5021128;28;19975;-90
2021/12/04 08:45:34;;;;;;;;;;;4.80;99.90;;;;;;5037225;28;19924;-89
2021/12/04 08:47:59;;;;;;;;;;;4.90;99.90;;;;;;5022124;28;19925;-91
2021/12/04 08:50:26;;;;;;;;;;;4.80;99.90;;;;;;5020470;28;19932;-89
2021/12/04 08:52:54;;;;;;;;;;;4.80;99.90;;;;;;5053878;28;20292;-88
2021/12/04 08:55:20;;;;;;;;;;;4.80;99.90;;;;;;5020414;28;19929;-89
2021/12/04 08:57:48;;;;;;;;;;;4.80;99.90;;;;;;5020656;28;19948;-89
2021/12/04 09:00:19;;;;;;;;;;;4.80;99.90;;;;;;5021621;28;19925;-91
2021/12/04 09:02:47;;;;;;;;;;;4.90;99.90;;;;;;5022129;28;20277;-90
2021/12/04 09:05:13;;;;;;;;;;;4.90;99.90;;;;;;5020603;28;19929;-87
2021/12/04 09:07:39;;;;;;;;;;;5.00;99.90;;;;;;5036768;28;19932;-90
2021/12/04 09:10:05;;;;;;;;;;;4.90;99.90;;;;;;5020246;28;19932;-89
2021/12/04 09:12:33;;;;;;;;;;;4.90;99.90;;;;;;5052991;28;20311;-88
2021/12/04 09:14:59;;;;;;;;;;;5.10;99.90;;;;;;5020259;28;19932;-89
2021/12/04 09:17:25;;;;;;;;;;;5.00;99.90;;;;;;5036182;28;19925;-88
2021/12/04 09:19:50;;;;;;;;;;;5.00;99.90;;;;;;5036027;28;19932;-88
2021/12/04 09:22:24;;;;;;;;;;;5.00;99.90;;;;;;5035447;28;19925;-88
2021/12/04 09:24:54;;;;;;;;;;;5.00;99.90;;;;;;5036624;28;19971;-89
2021/12/04 09:35:12;;;;;;;;;;;5.00;99.90;;;;;;5008991;28;20344;-89
2021/12/04 10:02:08;;;;;;;;;;;5.10;99.90;;;;;;5052666;28;19925;-90
2021/12/04 10:20:45;;;;;;;;;;;5.30;99.90;;;;;;5036375;28;19925;-89
2021/12/04 10:33:46;;;;;;;;;;;5.30;99.90;;;;;;5037930;28;19925;-89
2021/12/04 10:36:12;;;;;;;;;;;5.30;99.90;;;;;;5035631;28;19925;-89
2021/12/04 10:38:45;;;;;;;;;;;5.40;99.90;;;;;;5018619;28;19925;-89
2021/12/04 10:41:11;;;;;;;;;;;5.40;99.90;;;;;;5020362;28;19955;-89
2021/12/04 10:43:37;;;;;;;;;;;5.40;99.90;;;;;;5051683;28;19931;-90
2021/12/04 10:46:14;;;;;;;;;;;5.40;99.90;;;;;;5018993;28;20023;-89
2021/12/04 10:48:48;;;;;;;;;;;5.40;99.90;;;;;;5019481;28;19932;-89
2021/12/04 10:53:48;;;;;;;;;;;5.40;99.90;;;;;;5034965;28;20357;-89
2021/12/04 11:07:49;;;;;;;;;;;5.40;99.90;;;;;;5013971;28;20305;-89
2021/12/04 11:40:22;;;;;;;;;;;5.40;99.90;;;;;;5041386;28;19925;-89
2021/12/04 11:42:54;;;;;;;;;;;5.50;99.90;;;;;;5024126;28;20023;-90
2021/12/04 11:45:23;;;;;;;;;;;5.50;99.90;;;;;;5055653;28;19924;-90
2021/12/04 11:47:55;;;;;;;;;;;5.50;99.90;;;;;;5038176;28;20008;-89
2021/12/04 11:50:22;;;;;;;;;;;5.60;99.90;;;;;;5038568;28;19925;-89
2021/12/04 11:52:49;;;;;;;;;;;5.50;99.90;;;;;;5038294;28;20396;-90
2021/12/04 11:55:15;;;;;;;;;;;5.50;99.90;;;;;;5021859;28;19974;-89
2021/12/04 11:57:41;;;;;;;;;;;5.50;99.90;;;;;;5037932;28;20007;-90
2021/12/04 12:00:28;;;;;;;;;;;5.50;99.90;;;;;;5021868;28;19929;-90
2021/12/04 12:03:04;;;;;;;;;;;5.50;99.90;;;;;;5038087;28;20327;-90
2021/12/04 12:05:30;;;;;;;;;;;5.50;99.90;;;;;;5021700;28;19968;-90
2021/12/04 12:07:56;;;;;;;;;;;5.50;99.90;;;;;;5037470;28;19987;-90
2021/12/04 12:10:23;;;;;;;;;;;5.60;99.90;;;;;;5054462;28;20020;-90
2021/12/04 12:12:49;;;;;;;;;;;5.50;99.90;;;;;;5021342;28;19925;-90
2021/12/04 12:15:29;;;;;;;;;;;5.50;99.90;;;;;;5054760;28;19925;-89
2021/12/04 12:18:02;;;;;;;;;;;5.50;99.90;;;;;;5021528;28;20031;-89
2021/12/04 12:20:36;;;;;;;;;;;5.60;99.90;;;;;;5022502;28;19932;-90
2021/12/04 12:23:07;;;;;;;;;;;5.60;99.90;;;;;;5022626;28;19936;-90
2021/12/04 12:33:56;;;;;;;;;;;5.60;99.90;;;;;;5039908;28;19954;-90
2021/12/04 12:36:22;;;;;;;;;;;5.70;99.90;;;;;;5022626;28;20380;-90
2021/12/04 12:38:51;;;;;;;;;;;5.70;99.90;;;;;;5053766;28;19964;-89
2021/12/04 12:41:23;;;;;;;;;;;5.70;99.90;;;;;;5037877;28;19924;-90
2021/12/04 12:44:04;;;;;;;;;;;5.70;99.90;;;;;;5036906;28;19931;-89
2021/12/04 12:46:34;;;;;;;;;;;5.70;99.90;;;;;;5054082;28;20277;-90
2021/12/04 12:48:59;;;;;;;;;;;5.70;99.90;;;;;;5053223;28;19925;-90
2021/12/04 12:51:29;;;;;;;;;;;5.60;99.90;;;;;;5037181;28;19932;-89
2021/12/04 12:53:55;;;;;;;;;;;5.60;99.90;;;;;;5053431;28;20002;-90
2021/12/04 12:56:24;;;;;;;;;;;5.60;99.90;;;;;;5020745;28;20388;-89
2021/12/04 12:58:56;;;;;;;;;;;5.60;99.90;;;;;;5036907;28;19924;-89
2021/12/04 13:12:52;;;;;;;;;;;5.60;99.90;;;;;;5039010;28;19948;-90
2021/12/04 13:15:32;;;;;;;;;;;5.50;99.90;;;;;;5036872;28;20361;-90
2021/12/04 13:18:07;;;;;;;;;;;5.60;99.90;;;;;;5019987;28;20380;-89
2021/12/04 13:20:33;;;;;;;;;;;5.60;99.90;;;;;;5036869;28;20277;-90
2021/12/04 13:22:58;;;;;;;;;;;5.60;99.90;;;;;;5035597;28;19925;-90
2021/12/04 13:25:24;;;;;;;;;;;5.60;99.90;;;;;;5020174;28;19925;-90
2021/12/04 13:30:16;;;;;;;;;;;5.60;99.90;;;;;;5053467;28;20017;-90
2021/12/04 13:32:43;;;;;;;;;;;5.60;99.90;;;;;;5036748;28;19943;-89
2021/12/04 13:35:10;;;;;;;;;;;5.60;99.90;;;;;;5019581;28;19931;-89
2021/12/04 13:37:35;;;;;;;;;;;5.60;99.90;;;;;;5020018;28;19925;-90
2021/12/04 13:40:05;;;;;;;;;;;5.60;99.90;;;;;;5036105;28;19929;-89
2021/12/04 13:42:32;;;;;;;;;;;5.60;99.90;;;;;;5052943;28;20296;-89
2021/12/04 13:44:58;;;;;;;;;;;5.60;99.90;;;;;;5019795;28;19978;-90
2021/12/04 13:47:25;;;;;;;;;;;5.60;99.90;;;;;;5036131;28;20024;-90
2021/12/04 13:49:54;;;;;;;;;;;5.60;99.90;;;;;;5035743;28;19925;-90
2021/12/04 13:52:22;;;;;;;;;;;5.60;99.90;;;;;;5036796;28;20347;-91
2021/12/04 13:54:52;;;;;;;;;;;5.60;99.90;;;;;;5035876;28;20391;-89
2021/12/04 13:57:18;;;;;;;;;;;5.60;99.90;;;;;;5036181;28;20407;-89
2021/12/04 13:59:43;;;;;;;;;;;5.60;99.90;;;;;;5052540;28;19967;-90
2021/12/04 14:02:19;;;;;;;;;;;5.60;99.90;;;;;;5052298;28;20261;-90
2021/12/04 14:04:53;;;;;;;;;;;5.60;99.90;;;;;;5035509;28;19925;-91
2021/12/04 14:07:19;;;;;;;;;;;5.60;99.90;;;;;;5019065;28;20034;-90
2021/12/04 14:12:58;;;;;;;;;;;5.50;99.90;;;;;;5045315;28;19924;-93
2021/12/04 14:15:36;;;;;;;;;;;;;;;;;;;;;
2021/12/04 14:18:04;;;;;;;;;;;5.50;99.90;;;;;;5038006;28;20435;-92
2021/12/04 14:20:39;;;;;;;;;;;5.50;99.90;;;;;;5037616;28;19925;-92
2021/12/04 14:29:31;;;;;;;;;;;5.50;99.90;;;;;;5038447;28;19974;-91
2021/12/04 14:31:59;;;;;;;;;;;5.50;99.90;;;;;;5035680;28;20028;-89
2021/12/04 14:34:25;;;;;;;;;;;5.50;99.90;;;;;;5019879;28;19925;-89
2021/12/04 14:37:00;;;;;;;;;;;5.50;99.90;;;;;;5053069;28;19924;-88
2021/12/04 14:39:26;;;;;;;;;;;5.40;99.90;;;;;;5020135;28;20452;-90
2021/12/04 14:41:59;;;;;;;;;;;5.40;99.90;;;;;;5035855;28;19987;-90
2021/12/04 14:44:31;;;;;;;;;;;5.40;99.90;;;;;;5020422;28;19925;-88
2021/12/04 14:46:59;;;;;;;;;;;5.40;99.90;;;;;;5036823;28;20003;-89
2021/12/04 14:49:30;;;;;;;;;;;5.40;99.90;;;;;;5019902;28;19964;-88
2021/12/04 14:52:01;;;;;;;;;;;5.40;99.90;;;;;;5036811;28;19924;-92
2021/12/04 14:54:30;;;;;;;;;;;5.40;99.90;;;;;;5037189;28;19925;-90
2021/12/04 14:56:58;;;;;;;;;;;5.40;99.90;;;;;;5019044;28;19925;-91
2021/12/04 14:59:37;;;;;;;;;;;;;;;;;;;;;
2021/12/04 15:02:41;;;;;;;;;;;5.30;99.90;;;;;;5053271;28;19925;-91
2021/12/04 15:05:37;;;;;;;;;;;5.40;99.90;;;;;;5036730;28;19924;-92
2021/12/04 15:08:12;;;;;;;;;;;5.40;99.90;;;;;;5043042;28;19931;-91
2021/12/04 15:10:42;;;;;;;;;;;5.40;99.90;;;;;;5037503;28;19931;-90
2021/12/04 15:19:39;;;;;;;;;;;5.40;99.90;;;;;;5029063;28;19978;-92
2021/12/04 15:22:07;;;;;;;;;;;5.40;99.90;;;;;;5037815;28;19924;-92
2021/12/04 15:24:35;;;;;;;;;;;5.50;99.90;;;;;;5020273;28;19980;-92
2021/12/04 15:27:17;;;;;;;;;;;;;;;;;;;;;
2021/12/04 15:30:01;;;;;;;;;;;5.40;99.90;;;;;;5036492;28;19929;-89
2021/12/04 15:32:37;;;;;;;;;;;;;;;;;;;;;
2021/12/04 15:35:18;;;;;;;;;;;5.40;99.90;;;;;;5036416;28;19925;-87
2021/12/04 15:37:59;;;;;;;;;;;5.40;99.90;;;;;;5035306;28;19924;-89
2021/12/04 15:40:39;;;;;;;;;;;5.40;99.90;;;;;;5034855;28;20316;-89
2021/12/04 15:43:53;;;;;;;;;;;5.40;99.90;;;;;;5035680;28;19931;-89
2021/12/04 15:46:31;;;;;;;;;;;5.40;99.90;;;;;;5039152;28;19931;-89
2021/12/04 15:55:06;;;;;;;;;;;5.40;99.90;;;;;;5055205;28;19991;-90
2021/12/04 15:57:35;;;;;;;;;;;5.40;99.90;;;;;;5023525;28;19939;-89
2021/12/04 16:00:05;;;;;;;;;;;5.40;99.90;;;;;;5022445;28;20337;-91
2021/12/04 16:02:37;;;;;;;;;;;5.40;99.90;;;;;;5021822;28;19932;-93
2021/12/04 16:05:07;;;;;;;;;;;5.40;99.90;;;;;;5039112;28;19929;-91
2021/12/04 16:07:33;;;;;;;;;;;5.40;99.90;;;;;;5021692;28;20387;-90
2021/12/04 16:10:03;;;;;;;;;;;5.50;99.90;;;;;;5021885;28;19931;-90
2021/12/04 16:12:39;;;;;;;;;;;;;;;;;;;;;
2021/12/04 16:15:06;;;;;;;;;;;5.40;99.90;;;;;;5039580;28;19924;-91
2021/12/04 16:17:34;;;;;;;;;;;5.40;99.90;;;;;;5039001;28;19928;-91
2021/12/04 16:20:08;;;;;;;;;;;5.40;99.90;;;;;;5023019;28;19924;-91
2021/12/04 16:22:41;;;;;;;;;;;5.40;99.90;;;;;;5039780;28;19928;-93
2021/12/04 16:25:14;;;;;;;;;;;5.40;99.90;;;;;;5054726;28;19978;-91
2021/12/04 16:28:01;;;;;;;;;;;5.40;99.90;;;;;;5023101;28;19979;-92
2021/12/04 16:31:09;;;;;;;;;;;;;;;;;;;;;
2021/12/04 16:39:30;;;;;;;;;;;;;;;;;;;;;
2021/12/04 16:42:10;;;;;;;;;;;5.40;99.90;;;;;;5039776;28;19925;-91
2021/12/04 16:47:45;;;;;;;;;;;5.30;99.90;;;;;;5054561;28;20388;-90
2021/12/04 16:59:20;;;;;;;;;;;5.40;99.90;;;;;;5040367;28;20285;-90
2021/12/04 17:01:52;;;;;;;;;;;5.40;99.90;;;;;;5037216;28;19932;-89
2021/12/04 17:04:30;;;;;;;;;;;;;;;;;;;;;
2021/12/04 17:07:07;;;;;;;;;;;5.40;99.90;;;;;;5038599;28;19931;-90
2021/12/04 17:09:38;;;;;;;;;;;5.40;99.90;;;;;;5021686;28;19925;-88
2021/12/04 17:12:31;;;;;;;;;;;;;;;;;;;;;
2021/12/04 17:15:02;;;;;;;;;;;5.40;99.90;;;;;;5038356;28;19924;-90
2021/12/04 17:17:38;;;;;;;;;;;5.40;99.90;;;;;;5037034;28;19931;-89
2021/12/04 17:20:07;;;;;;;;;;;5.40;99.90;;;;;;5053569;28;19925;-88
2021/12/04 17:22:51;;;;;;;;;;;;;;;;;;;;;
2021/12/04 17:25:27;;;;;;;;;;;;;;;;;;;;;
2021/12/04 17:27:55;;;;;;;;;;;5.40;99.90;;;;;;5053163;28;19929;-89
2021/12/04 17:30:29;;;;;;;;;;;5.40;99.90;;;;;;5036615;28;19932;-89
2021/12/04 17:32:57;;;;;;;;;;;5.40;99.90;;;;;;5052978;28;19947;-89
2021/12/04 17:35:26;;;;;;;;;;;5.40;99.90;;;;;;5020541;28;19924;-88
2021/12/04 17:38:20;;;;;;;;;;;5.30;99.90;;;;;;5070718;28;19929;-91
2021/12/04 17:40:45;;;;;;;;;;;5.40;99.90;;;;;;5038393;28;19925;-88
2021/12/04 17:43:13;;;;;;;;;;;5.40;99.90;;;;;;5036679;28;19939;-89
2021/12/04 17:45:48;;;;;;;;;;;5.30;99.90;;;;;;5020049;28;19931;-88
2021/12/04 17:48:16;;;;;;;;;;;5.40;99.90;;;;;;5036796;28;19932;-88
2021/12/04 17:50:55;;;;;;;;;;;5.50;99.90;;;;;;5036918;28;19932;-90
2021/12/04 17:53:39;;;;;;;;;;;5.50;99.90;;;;;;5023412;28;19925;-91
2021/12/04 17:56:15;;;;;;;;;;;5.50;99.90;;;;;;5021199;28;19924;-91
2021/12/04 17:58:43;;;;;;;;;;;5.50;99.90;;;;;;5020808;28;19929;-90
2021/12/04 18:01:16;;;;;;;;;;;5.50;99.90;;;;;;5037270;28;19972;-88
2021/12/04 18:03:44;;;;;;;;;;;5.50;99.90;;;;;;5019377;28;19936;-90
2021/12/04 18:06:21;;;;;;;;;;;5.50;99.90;;;;;;5021463;28;20019;-91
2021/12/04 18:09:03;;;;;;;;;;;5.50;99.90;;;;;;5019535;28;19925;-89
2021/12/04 18:11:42;;;;;;;;;;;;;;;;;;;;;
2021/12/04 18:14:10;;;;;;;;;;;5.40;99.90;;;;;;5037511;28;19929;-91
2021/12/04 18:16:54;;;;;;;;;;;;;;;;;;;;;
2021/12/04 18:19:28;;;;;;;;;;;5.40;99.90;;;;;;5038272;28;19974;-93
2021/12/04 18:21:57;;;;;;;;;;;5.40;99.90;;;;;;5036612;28;19971;-90
2021/12/04 18:24:26;;;;;;;;;;;5.50;99.90;;;;;;5052334;28;19931;-91
2021/12/04 18:26:56;;;;;;;;;;;5.40;99.90;;;;;;5019983;28;19924;-89
2021/12/04 18:29:39;;;;;;;;;;;5.60;99.90;;;;;;5019123;28;19925;-90
2021/12/04 18:32:04;;;;;;;;;;;5.60;99.90;;;;;;5020890;28;20297;-92
2021/12/04 18:34:32;;;;;;;;;;;5.70;99.90;;;;;;5019603;28;19928;-91
2021/12/04 18:36:58;;;;;;;;;;;5.70;99.90;;;;;;5036684;28;19932;-92
2021/12/04 18:39:45;;;;;;;;;;;5.60;99.90;;;;;;5019565;28;20281;-92
2021/12/04 18:42:14;;;;;;;;;;;5.50;99.90;;;;;;5053061;28;19925;-92
2021/12/04 18:44:44;;;;;;;;;;;5.50;99.90;;;;;;5036846;28;20277;-93